sensor_id;sensor_type;location;lat;lon;timestamp;pressure;altitude;pressure_sealevel;temperature;humidity
58698;BME280;44475;53.206;-6.106;2023-01-29T00:01:59;102967.25;;;22.61;40.50
58698;BME280;44475;53.206;-6.106;2023-01-29T00:04:25;102964.81;;;22.55;40.46
58698;BME280;44475;53.206;-6.106;2023-01-29T00:06:51;102958.72;;;22.67;40.20
58698;BME280;44475;53.206;-6.106;2023-01-29T00:09:18;102956.06;;;22.66;40.43
58698;BME280;44475;53.206;-6.106;2023-01-29T00:11:44;102955.09;;;22.67;40.31
58698;BME280;44475;53.206;-6.106;2023-01-29T00:14:11;102950.66;;;22.64;40.52
58698;BME280;44475;53.206;-6.106;2023-01-29T00:16:37;102941.66;;;22.62;40.25
58698;BME280;44475;53.206;-6.106;2023-01-29T00:19:04;102934.34;;;22.63;40.70
58698;BME280;44475;53.206;-6.106;2023-01-29T00:21:30;102931.88;;;22.58;40.71
58698;BME280;44475;53.206;-6.106;2023-01-29T00:23:57;102940.81;;;22.62;40.60
58698;BME280;44475;53.206;-6.106;2023-01-29T00:26:24;102940.97;;;22.58;40.74
58698;BME280;44475;53.206;-6.106;2023-01-29T00:28:50;102935.09;;;22.48;40.65
58698;BME280;44475;53.206;-6.106;2023-01-29T00:31:19;102938.22;;;22.58;40.50
58698;BME280;44475;53.206;-6.106;2023-01-29T00:33:47;102937.34;;;22.58;40.70
58698;BME280;44475;53.206;-6.106;2023-01-29T00:36:14;102942.31;;;22.67;40.33
58698;BME280;44475;53.206;-6.106;2023-01-29T00:38:41;102937.09;;;22.63;40.64
58698;BME280;44475;53.206;-6.106;2023-01-29T00:41:13;102937.88;;;22.65;40.37
58698;BME280;44475;53.206;-6.106;2023-01-29T00:44:02;102947.94;;;22.64;40.67
58698;BME280;44475;53.206;-6.106;2023-01-29T00:46:47;102947.38;;;22.57;40.78
58698;BME280;44475;53.206;-6.106;2023-01-29T00:49:13;102946.09;;;22.65;40.65
58698;BME280;44475;53.206;-6.106;2023-01-29T00:51:40;102950.69;;;22.82;40.31
58698;BME280;44475;53.206;-6.106;2023-01-29T00:54:06;102944.19;;;22.85;40.27
58698;BME280;44475;53.206;-6.106;2023-01-29T00:56:36;102941.66;;;22.80;40.10
58698;BME280;44475;53.206;-6.106;2023-01-29T00:59:03;102933.88;;;22.72;40.52
58698;BME280;44475;53.206;-6.106;2023-01-29T01:01:29;102938.69;;;22.67;40.80
58698;BME280;44475;53.206;-6.106;2023-01-29T01:04:14;102930.34;;;22.70;40.49
58698;BME280;44475;53.206;-6.106;2023-01-29T01:06:41;102931.63;;;22.80;40.30
58698;BME280;44475;53.206;-6.106;2023-01-29T01:09:09;102929.47;;;22.69;40.59
58698;BME280;44475;53.206;-6.106;2023-01-29T01:11:54;102929.63;;;22.66;40.52
58698;BME280;44475;53.206;-6.106;2023-01-29T01:14:21;102931.38;;;22.67;40.76
58698;BME280;44475;53.206;-6.106;2023-01-29T01:16:48;102929.47;;;22.69;40.94
58698;BME280;44475;53.206;-6.106;2023-01-29T01:19:15;102924.81;;;22.72;40.84
58698;BME280;44475;53.206;-6.106;2023-01-29T01:21:42;102921.19;;;22.71;40.80
58698;BME280;44475;53.206;-6.106;2023-01-29T01:24:11;102915.47;;;22.76;40.82
58698;BME280;44475;53.206;-6.106;2023-01-29T01:26:38;102912.34;;;22.84;40.70
58698;BME280;44475;53.206;-6.106;2023-01-29T01:29:05;102911.22;;;22.88;40.45
58698;BME280;44475;53.206;-6.106;2023-01-29T01:31:31;102914.34;;;22.80;40.69
58698;BME280;44475;53.206;-6.106;2023-01-29T01:33:57;102916.50;;;22.73;40.77
58698;BME280;44475;53.206;-6.106;2023-01-29T01:36:25;102909.09;;;22.75;40.75
58698;BME280;44475;53.206;-6.106;2023-01-29T01:38:51;102918.81;;;22.83;40.59
58698;BME280;44475;53.206;-6.106;2023-01-29T01:41:20;102912.50;;;22.80;40.60
58698;BME280;44475;53.206;-6.106;2023-01-29T01:46:17;102896.94;;;22.83;41.04
58698;BME280;44475;53.206;-6.106;2023-01-29T01:48:45;102899.56;;;22.84;40.68
58698;BME280;44475;53.206;-6.106;2023-01-29T01:51:15;102890.31;;;22.87;40.82
58698;BME280;44475;53.206;-6.106;2023-01-29T01:53:56;102883.00;;;22.87;40.59
58698;BME280;44475;53.206;-6.106;2023-01-29T01:56:30;102886.94;;;22.82;40.78
58698;BME280;44475;53.206;-6.106;2023-01-29T01:59:06;102872.88;;;22.89;40.56
58698;BME280;44475;53.206;-6.106;2023-01-29T02:01:35;102868.84;;;22.79;40.90
58698;BME280;44475;53.206;-6.106;2023-01-29T02:04:13;102869.66;;;22.81;40.86
58698;BME280;44475;53.206;-6.106;2023-01-29T02:07:04;102861.13;;;22.87;40.64
58698;BME280;44475;53.206;-6.106;2023-01-29T02:10:09;102865.06;;;22.82;40.57
58698;BME280;44475;53.206;-6.106;2023-01-29T02:12:37;102862.75;;;22.92;40.61
58698;BME280;44475;53.206;-6.106;2023-01-29T02:15:05;102865.41;;;22.93;40.42
58698;BME280;44475;53.206;-6.106;2023-01-29T02:17:31;102875.91;;;22.83;40.72
58698;BME280;44475;53.206;-6.106;2023-01-29T02:28:19;102876.22;;;22.95;40.84
58698;BME280;44475;53.206;-6.106;2023-01-29T02:33:47;102886.53;;;22.89;40.82
58698;BME280;44475;53.206;-6.106;2023-01-29T02:42:13;102867.25;;;22.93;40.57
58698;BME280;44475;53.206;-6.106;2023-01-29T02:44:47;102853.66;;;22.91;41.08
58698;BME280;44475;53.206;-6.106;2023-01-29T02:47:22;102855.34;;;22.94;41.04
58698;BME280;44475;53.206;-6.106;2023-01-29T02:50:36;102842.72;;;22.91;40.83
58698;BME280;44475;53.206;-6.106;2023-01-29T02:52:48;102837.53;;;23.03;40.53
58698;BME280;44475;53.206;-6.106;2023-01-29T02:55:39;102841.47;;;22.97;40.74
58698;BME280;44475;53.206;-6.106;2023-01-29T02:58:22;102826.53;;;23.04;40.80
58698;BME280;44475;53.206;-6.106;2023-01-29T03:00:51;102821.47;;;22.96;40.93
58698;BME280;44475;53.206;-6.106;2023-01-29T03:03:24;102811.97;;;23.04;40.73
58698;BME280;44475;53.206;-6.106;2023-01-29T03:08:57;102795.66;;;23.02;40.63
58698;BME280;44475;53.206;-6.106;2023-01-29T03:11:38;102797.59;;;23.00;40.60
58698;BME280;44475;53.206;-6.106;2023-01-29T03:14:16;102789.81;;;22.92;40.99
58698;BME280;44475;53.206;-6.106;2023-01-29T03:16:50;102792.47;;;22.94;40.73
58698;BME280;44475;53.206;-6.106;2023-01-29T03:19:32;102796.78;;;22.98;40.60
58698;BME280;44475;53.206;-6.106;2023-01-29T03:22:06;102785.84;;;22.98;40.72
58698;BME280;44475;53.206;-6.106;2023-01-29T03:24:43;102775.88;;;22.97;40.64
58698;BME280;44475;53.206;-6.106;2023-01-29T03:27:55;102769.56;;;22.78;41.08
58698;BME280;44475;53.206;-6.106;2023-01-29T03:30:53;102755.16;;;23.09;40.69
58698;BME280;44475;53.206;-6.106;2023-01-29T03:33:51;102750.22;;;22.99;40.77
58698;BME280;44475;53.206;-6.106;2023-01-29T03:36:49;102744.59;;;23.03;40.62
58698;BME280;44475;53.206;-6.106;2023-01-29T03:39:14;102751.97;;;22.84;40.98
58698;BME280;44475;53.206;-6.106;2023-01-29T03:42:37;102754.22;;;22.94;40.53
58698;BME280;44475;53.206;-6.106;2023-01-29T03:44:56;102766.47;;;23.03;40.51
58698;BME280;44475;53.206;-6.106;2023-01-29T03:47:41;102767.69;;;22.97;40.37
58698;BME280;44475;53.206;-6.106;2023-01-29T03:53:54;102762.94;;;23.01;40.37
58698;BME280;44475;53.206;-6.106;2023-01-29T03:59:10;102767.22;;;23.05;40.57
58698;BME280;44475;53.206;-6.106;2023-01-29T04:02:21;102756.41;;;23.03;40.34
58698;BME280;44475;53.206;-6.106;2023-01-29T04:05:03;102758.66;;;22.95;40.56
58698;BME280;44475;53.206;-6.106;2023-01-29T04:07:40;102750.94;;;23.03;40.45
58698;BME280;44475;53.206;-6.106;2023-01-29T04:10:17;102748.47;;;22.98;40.72
58698;BME280;44475;53.206;-6.106;2023-01-29T04:13:09;102743.34;;;22.92;40.79
58698;BME280;44475;53.206;-6.106;2023-01-29T04:15:48;102738.41;;;22.99;40.38
58698;BME280;44475;53.206;-6.106;2023-01-29T04:18:17;102731.97;;;23.00;40.73
58698;BME280;44475;53.206;-6.106;2023-01-29T04:21:10;102742.28;;;22.95;40.62
58698;BME280;44475;53.206;-6.106;2023-01-29T04:23:36;102729.16;;;23.02;40.38
58698;BME280;44475;53.206;-6.106;2023-01-29T04:31:11;102728.09;;;23.04;40.43
58698;BME280;44475;53.206;-6.106;2023-01-29T04:47:23;102702.69;;;23.02;40.46
58698;BME280;44475;53.206;-6.106;2023-01-29T04:59:04;102693.28;;;22.92;40.70
58698;BME280;44475;53.206;-6.106;2023-01-29T05:01:33;102686.63;;;22.96;40.52
58698;BME280;44475;53.206;-6.106;2023-01-29T05:04:08;102679.94;;;23.02;40.32
58698;BME280;44475;53.206;-6.106;2023-01-29T05:06:36;102679.41;;;22.95;40.33
58698;BME280;44475;53.206;-6.106;2023-01-29T05:09:03;102687.19;;;23.03;40.47
58698;BME280;44475;53.206;-6.106;2023-01-29T05:11:31;102685.31;;;23.03;40.23
58698;BME280;44475;53.206;-6.106;2023-01-29T05:14:01;102687.09;;;23.04;40.26
58698;BME280;44475;53.206;-6.106;2023-01-29T05:16:39;102680.91;;;23.01;40.51
58698;BME280;44475;53.206;-6.106;2023-01-29T05:19:12;102682.47;;;23.05;40.41
58698;BME280;44475;53.206;-6.106;2023-01-29T05:21:41;102681.00;;;22.99;40.57
58698;BME280;44475;53.206;-6.106;2023-01-29T05:24:21;102670.69;;;23.04;40.62
58698;BME280;44475;53.206;-6.106;2023-01-29T05:26:49;102679.22;;;22.98;40.64
58698;BME280;44475;53.206;-6.106;2023-01-29T05:29:34;102677.47;;;22.97;40.73
58698;BME280;44475;53.206;-6.106;2023-01-29T05:32:01;102677.75;;;22.92;40.77
58698;BME280;44475;53.206;-6.106;2023-01-29T05:34:28;102674.22;;;22.90;40.62
58698;BME280;44475;53.206;-6.106;2023-01-29T05:36:55;102661.78;;;23.01;40.60
58698;BME280;44475;53.206;-6.106;2023-01-29T05:39:21;102653.25;;;22.91;40.62
58698;BME280;44475;53.206;-6.106;2023-01-29T05:41:47;102652.19;;;22.93;40.78
58698;BME280;44475;53.206;-6.106;2023-01-29T05:44:13;102649.53;;;22.92;40.50
58698;BME280;44475;53.206;-6.106;2023-01-29T05:46:40;102644.75;;;22.95;40.80
58698;BME280;44475;53.206;-6.106;2023-01-29T05:49:06;102637.09;;;23.02;40.47
58698;BME280;44475;53.206;-6.106;2023-01-29T05:51:32;102639.53;;;23.07;40.56
58698;BME280;44475;53.206;-6.106;2023-01-29T05:53:58;102630.19;;;22.95;40.37
58698;BME280;44475;53.206;-6.106;2023-01-29T05:56:25;102623.09;;;22.92;40.60
58698;BME280;44475;53.206;-6.106;2023-01-29T05:58:51;102625.06;;;23.05;40.26
58698;BME280;44475;53.206;-6.106;2023-01-29T06:01:21;102619.88;;;23.00;40.70
58698;BME280;44475;53.206;-6.106;2023-01-29T06:03:47;102612.66;;;22.99;40.44
58698;BME280;44475;53.206;-6.106;2023-01-29T06:06:13;102618.63;;;23.06;40.44
58698;BME280;44475;53.206;-6.106;2023-01-29T06:08:40;102613.38;;;23.03;40.38
58698;BME280;44475;53.206;-6.106;2023-01-29T06:11:08;102616.53;;;22.95;40.75
58698;BME280;44475;53.206;-6.106;2023-01-29T06:13:35;102623.50;;;23.01;40.34
58698;BME280;44475;53.206;-6.106;2023-01-29T06:16:04;102625.19;;;23.03;40.44
58698;BME280;44475;53.206;-6.106;2023-01-29T06:18:31;102626.16;;;23.02;40.24
58698;BME280;44475;53.206;-6.106;2023-01-29T06:21:02;102635.25;;;23.03;40.34
58698;BME280;44475;53.206;-6.106;2023-01-29T06:23:30;102637.00;;;23.04;40.20
58698;BME280;44475;53.206;-6.106;2023-01-29T06:26:06;102628.97;;;23.01;40.25
58698;BME280;44475;53.206;-6.106;2023-01-29T06:28:33;102637.25;;;22.99;40.50
58698;BME280;44475;53.206;-6.106;2023-01-29T06:31:02;102639.19;;;22.97;40.65
58698;BME280;44475;53.206;-6.106;2023-01-29T06:33:28;102624.38;;;23.01;40.69
58698;BME280;44475;53.206;-6.106;2023-01-29T06:36:00;102621.47;;;23.04;40.18
58698;BME280;44475;53.206;-6.106;2023-01-29T06:38:27;102622.25;;;23.06;40.35
58698;BME280;44475;53.206;-6.106;2023-01-29T06:40:54;102619.25;;;22.95;40.75
58698;BME280;44475;53.206;-6.106;2023-01-29T06:43:20;102617.63;;;22.92;40.51
58698;BME280;44475;53.206;-6.106;2023-01-29T06:45:49;102618.84;;;23.03;40.25
58698;BME280;44475;53.206;-6.106;2023-01-29T06:48:15;102623.59;;;22.99;40.69
58698;BME280;44475;53.206;-6.106;2023-01-29T06:50:42;102616.66;;;22.93;40.42
58698;BME280;44475;53.206;-6.106;2023-01-29T06:53:08;102614.91;;;23.07;40.59
58698;BME280;44475;53.206;-6.106;2023-01-29T06:55:35;102608.78;;;23.03;40.31
58698;BME280;44475;53.206;-6.106;2023-01-29T06:58:08;102604.84;;;22.93;40.63
58698;BME280;44475;53.206;-6.106;2023-01-29T07:00:35;102612.19;;;23.07;40.46
58698;BME280;44475;53.206;-6.106;2023-01-29T07:03:02;102616.19;;;23.01;40.37
58698;BME280;44475;53.206;-6.106;2023-01-29T07:05:29;102618.38;;;23.11;40.14
58698;BME280;44475;53.206;-6.106;2023-01-29T07:07:56;102604.63;;;22.96;40.62
58698;BME280;44475;53.206;-6.106;2023-01-29T07:10:23;102618.13;;;22.99;40.77
58698;BME280;44475;53.206;-6.106;2023-01-29T07:12:49;102605.25;;;23.01;40.34
58698;BME280;44475;53.206;-6.106;2023-01-29T07:15:16;102600.28;;;23.08;40.49
58698;BME280;44475;53.206;-6.106;2023-01-29T07:18:05;102605.66;;;23.09;40.21
58698;BME280;44475;53.206;-6.106;2023-01-29T07:20:38;102604.19;;;23.04;40.20
58698;BME280;44475;53.206;-6.106;2023-01-29T07:23:05;102608.56;;;23.06;40.50
58698;BME280;44475;53.206;-6.106;2023-01-29T07:25:33;102597.13;;;22.99;40.39
58698;BME280;44475;53.206;-6.106;2023-01-29T07:28:03;102591.41;;;23.04;40.52
58698;BME280;44475;53.206;-6.106;2023-01-29T07:30:29;102592.47;;;23.02;40.43
58698;BME280;44475;53.206;-6.106;2023-01-29T07:33:06;102596.97;;;23.03;40.12
58698;BME280;44475;53.206;-6.106;2023-01-29T07:35:38;102587.09;;;23.00;40.67
58698;BME280;44475;53.206;-6.106;2023-01-29T07:38:06;102588.47;;;23.07;40.26
58698;BME280;44475;53.206;-6.106;2023-01-29T07:40:32;102572.84;;;23.09;40.30
58698;BME280;44475;53.206;-6.106;2023-01-29T07:43:00;102589.25;;;23.09;40.16
58698;BME280;44475;53.206;-6.106;2023-01-29T07:45:27;102588.38;;;23.09;40.38
58698;BME280;44475;53.206;-6.106;2023-01-29T07:47:54;102579.91;;;23.14;40.07
58698;BME280;44475;53.206;-6.106;2023-01-29T07:50:22;102589.75;;;23.16;40.09
58698;BME280;44475;53.206;-6.106;2023-01-29T07:52:49;102587.63;;;23.22;39.90
58698;BME280;44475;53.206;-6.106;2023-01-29T07:55:16;102587.16;;;23.15;40.20
58698;BME280;44475;53.206;-6.106;2023-01-29T07:57:43;102594.56;;;22.96;40.47
58698;BME280;44475;53.206;-6.106;2023-01-29T08:00:10;102580.81;;;22.98;40.38
58698;BME280;44475;53.206;-6.106;2023-01-29T08:02:40;102568.00;;;23.15;39.90
58698;BME280;44475;53.206;-6.106;2023-01-29T08:05:07;102579.22;;;23.10;40.11
58698;BME280;44475;53.206;-6.106;2023-01-29T08:07:34;102569.41;;;23.06;40.17
58698;BME280;44475;53.206;-6.106;2023-01-29T08:10:00;102572.53;;;22.99;40.32
58698;BME280;44475;53.206;-6.106;2023-01-29T08:12:26;102570.19;;;22.93;40.48
58698;BME280;44475;53.206;-6.106;2023-01-29T08:14:52;102583.28;;;23.03;39.96
58698;BME280;44475;53.206;-6.106;2023-01-29T08:17:19;102588.22;;;22.96;40.43
58698;BME280;44475;53.206;-6.106;2023-01-29T08:19:45;102580.56;;;23.03;39.96
58698;BME280;44475;53.206;-6.106;2023-01-29T08:22:11;102565.31;;;22.98;40.39
58698;BME280;44475;53.206;-6.106;2023-01-29T08:24:37;102578.91;;;22.84;40.43
58698;BME280;44475;53.206;-6.106;2023-01-29T08:27:04;102577.50;;;22.93;40.23
58698;BME280;44475;53.206;-6.106;2023-01-29T08:29:30;102572.34;;;23.03;40.00
58698;BME280;44475;53.206;-6.106;2023-01-29T08:31:56;102570.84;;;22.97;40.17
58698;BME280;44475;53.206;-6.106;2023-01-29T08:34:23;102558.41;;;23.07;40.28
58698;BME280;44475;53.206;-6.106;2023-01-29T08:36:49;102547.84;;;23.01;40.20
58698;BME280;44475;53.206;-6.106;2023-01-29T08:39:15;102541.09;;;23.07;40.00
58698;BME280;44475;53.206;-6.106;2023-01-29T08:41:41;102550.75;;;22.98;40.03
58698;BME280;44475;53.206;-6.106;2023-01-29T08:44:08;102547.31;;;22.94;40.12
58698;BME280;44475;53.206;-6.106;2023-01-29T08:46:34;102541.97;;;22.93;40.44
58698;BME280;44475;53.206;-6.106;2023-01-29T08:49:00;102548.66;;;22.87;40.50
58698;BME280;44475;53.206;-6.106;2023-01-29T08:51:27;102559.34;;;22.92;40.45
58698;BME280;44475;53.206;-6.106;2023-01-29T08:53:53;102568.13;;;22.97;40.39
58698;BME280;44475;53.206;-6.106;2023-01-29T08:56:20;102570.94;;;22.95;40.27
58698;BME280;44475;53.206;-6.106;2023-01-29T08:58:46;102576.94;;;23.02;40.07
58698;BME280;44475;53.206;-6.106;2023-01-29T09:01:13;102575.34;;;22.98;40.46
58698;BME280;44475;53.206;-6.106;2023-01-29T09:03:40;102583.22;;;23.04;40.31
58698;BME280;44475;53.206;-6.106;2023-01-29T09:06:10;102581.53;;;23.02;40.21
58698;BME280;44475;53.206;-6.106;2023-01-29T09:08:36;102585.22;;;23.01;40.47
58698;BME280;44475;53.206;-6.106;2023-01-29T09:11:03;102579.16;;;22.95;40.21
58698;BME280;44475;53.206;-6.106;2023-01-29T09:13:29;102588.94;;;22.99;40.09
58698;BME280;44475;53.206;-6.106;2023-01-29T09:15:59;102578.97;;;22.98;40.03
58698;BME280;44475;53.206;-6.106;2023-01-29T09:18:26;102575.66;;;22.93;40.43
58698;BME280;44475;53.206;-6.106;2023-01-29T09:20:52;102582.41;;;23.02;39.99
58698;BME280;44475;53.206;-6.106;2023-01-29T09:23:19;102570.84;;;22.97;40.39
58698;BME280;44475;53.206;-6.106;2023-01-29T09:25:45;102576.31;;;22.97;40.21
58698;BME280;44475;53.206;-6.106;2023-01-29T09:28:12;102575.34;;;22.98;40.17
58698;BME280;44475;53.206;-6.106;2023-01-29T09:30:38;102560.53;;;23.02;40.22
58698;BME280;44475;53.206;-6.106;2023-01-29T09:33:05;102558.59;;;23.04;40.24
58698;BME280;44475;53.206;-6.106;2023-01-29T09:35:32;102568.84;;;23.01;40.26
58698;BME280;44475;53.206;-6.106;2023-01-29T09:37:58;102557.09;;;22.98;40.52
58698;BME280;44475;53.206;-6.106;2023-01-29T09:45:35;102544.06;;;23.04;39.93
58698;BME280;44475;53.206;-6.106;2023-01-29T09:48:08;102544.81;;;23.06;40.23
58698;BME280;44475;53.206;-6.106;2023-01-29T09:50:42;102541.31;;;23.04;40.05
58698;BME280;44475;53.206;-6.106;2023-01-29T09:53:34;102547.38;;;23.09;39.93
58698;BME280;44475;53.206;-6.106;2023-01-29T09:56:15;102546.88;;;23.02;40.07
58698;BME280;44475;53.206;-6.106;2023-01-29T09:58:44;102537.41;;;23.08;40.01
58698;BME280;44475;53.206;-6.106;2023-01-29T10:04:07;102525.97;;;23.01;40.13
58698;BME280;44475;53.206;-6.106;2023-01-29T10:10:04;102532.78;;;22.94;40.20
58698;BME280;44475;53.206;-6.106;2023-01-29T10:25:45;102521.47;;;23.00;40.34
58698;BME280;44475;53.206;-6.106;2023-01-29T10:28:17;102527.66;;;23.04;40.20
58698;BME280;44475;53.206;-6.106;2023-01-29T10:30:50;102526.38;;;23.09;40.02
58698;BME280;44475;53.206;-6.106;2023-01-29T10:33:50;102524.13;;;23.02;39.94
58698;BME280;44475;53.206;-6.106;2023-01-29T10:39:02;102510.81;;;22.95;40.37
58698;BME280;44475;53.206;-6.106;2023-01-29T10:42:03;102517.38;;;22.76;40.81
58698;BME280;44475;53.206;-6.106;2023-01-29T10:44:49;102504.00;;;22.72;41.17
58698;BME280;44475;53.206;-6.106;2023-01-29T10:58:20;102487.31;;;23.07;40.18
58698;BME280;44475;53.206;-6.106;2023-01-29T11:00:49;102474.81;;;23.18;40.17
58698;BME280;44475;53.206;-6.106;2023-01-29T11:03:22;102463.97;;;23.02;40.45
58698;BME280;44475;53.206;-6.106;2023-01-29T11:05:58;102452.47;;;23.11;40.30
58698;BME280;44475;53.206;-6.106;2023-01-29T11:11:41;102453.53;;;23.08;40.16
58698;BME280;44475;53.206;-6.106;2023-01-29T11:14:17;102461.16;;;23.03;40.44
58698;BME280;44475;53.206;-6.106;2023-01-29T11:16:47;102469.34;;;23.03;40.30
58698;BME280;44475;53.206;-6.106;2023-01-29T11:19:15;102454.50;;;23.07;40.18
58698;BME280;44475;53.206;-6.106;2023-01-29T11:21:55;102447.09;;;23.09;40.35
58698;BME280;44475;53.206;-6.106;2023-01-29T11:24:22;102459.97;;;23.07;40.34
58698;BME280;44475;53.206;-6.106;2023-01-29T11:26:51;102464.84;;;23.17;40.06
58698;BME280;44475;53.206;-6.106;2023-01-29T11:37:46;102457.34;;;23.21;39.81
58698;BME280;44475;53.206;-6.106;2023-01-29T11:42:45;102446.38;;;23.06;40.01
58698;BME280;44475;53.206;-6.106;2023-01-29T11:45:28;102434.13;;;23.13;39.97
58698;BME280;44475;53.206;-6.106;2023-01-29T11:47:57;102434.78;;;23.17;39.83
58698;BME280;44475;53.206;-6.106;2023-01-29T11:50:27;102420.81;;;23.07;40.11
58698;BME280;44475;53.206;-6.106;2023-01-29T11:52:55;102425.69;;;23.16;39.98
58698;BME280;44475;53.206;-6.106;2023-01-29T11:55:29;102419.47;;;23.14;40.14
58698;BME280;44475;53.206;-6.106;2023-01-29T11:58:17;102416.91;;;22.96;40.09
58698;BME280;44475;53.206;-6.106;2023-01-29T12:00:48;102413.50;;;22.93;40.31
58698;BME280;44475;53.206;-6.106;2023-01-29T12:05:58;102411.63;;;23.08;39.97
58698;BME280;44475;53.206;-6.106;2023-01-29T12:08:31;102413.00;;;23.15;40.02
58698;BME280;44475;53.206;-6.106;2023-01-29T12:11:31;102393.97;;;23.14;39.95
58698;BME280;44475;53.206;-6.106;2023-01-29T12:14:03;102382.25;;;23.12;39.88
58698;BME280;44475;53.206;-6.106;2023-01-29T12:21:43;102379.22;;;23.16;40.05
58698;BME280;44475;53.206;-6.106;2023-01-29T12:27:20;102371.13;;;23.00;40.35
58698;BME280;44475;53.206;-6.106;2023-01-29T12:30:24;102361.97;;;23.01;40.01
58698;BME280;44475;53.206;-6.106;2023-01-29T12:35:35;102345.16;;;22.93;40.22
58698;BME280;44475;53.206;-6.106;2023-01-29T12:38:07;102340.16;;;22.85;40.26
58698;BME280;44475;53.206;-6.106;2023-01-29T12:43:16;102324.66;;;23.00;40.22
58698;BME280;44475;53.206;-6.106;2023-01-29T12:45:45;102323.88;;;22.98;40.26
58698;BME280;44475;53.206;-6.106;2023-01-29T12:48:26;102323.78;;;22.99;39.82
58698;BME280;44475;53.206;-6.106;2023-01-29T12:50:56;102315.38;;;23.03;39.59
58698;BME280;44475;53.206;-6.106;2023-01-29T12:53:38;102309.59;;;23.07;39.22
58698;BME280;44475;53.206;-6.106;2023-01-29T12:56:15;102314.09;;;23.08;39.15
58698;BME280;44475;53.206;-6.106;2023-01-29T12:58:50;102315.31;;;23.04;39.42
58698;BME280;44475;53.206;-6.106;2023-01-29T13:01:37;102314.41;;;23.04;39.27
58698;BME280;44475;53.206;-6.106;2023-01-29T13:04:56;102311.56;;;23.05;38.97
58698;BME280;44475;53.206;-6.106;2023-01-29T13:07:20;102320.94;;;23.01;39.03
58698;BME280;44475;53.206;-6.106;2023-01-29T13:09:56;102298.81;;;22.91;38.70
58698;BME280;44475;53.206;-6.106;2023-01-29T13:12:25;102307.19;;;23.03;38.55
58698;BME280;44475;53.206;-6.106;2023-01-29T13:14:58;102294.41;;;23.03;38.46
58698;BME280;44475;53.206;-6.106;2023-01-29T13:17:45;102286.28;;;23.02;38.75
58698;BME280;44475;53.206;-6.106;2023-01-29T13:20:19;102278.78;;;22.91;38.60
58698;BME280;44475;53.206;-6.106;2023-01-29T13:22:49;102268.59;;;23.07;38.47
58698;BME280;44475;53.206;-6.106;2023-01-29T13:25:18;102259.34;;;22.95;38.53
58698;BME280;44475;53.206;-6.106;2023-01-29T13:27:46;102253.78;;;22.97;38.37
58698;BME280;44475;53.206;-6.106;2023-01-29T13:30:31;102243.22;;;23.05;38.03
58698;BME280;44475;53.206;-6.106;2023-01-29T13:33:04;102229.28;;;22.95;38.26
58698;BME280;44475;53.206;-6.106;2023-01-29T13:35:44;102220.88;;;22.98;38.01
58698;BME280;44475;53.206;-6.106;2023-01-29T13:41:40;102204.47;;;22.98;37.85
58698;BME280;44475;53.206;-6.106;2023-01-29T13:44:19;102209.97;;;22.84;38.46
58698;BME280;44475;53.206;-6.106;2023-01-29T13:47:02;102191.28;;;23.05;38.03
58698;BME280;44475;53.206;-6.106;2023-01-29T13:52:43;102173.53;;;22.98;37.76
58698;BME280;44475;53.206;-6.106;2023-01-29T14:05:57;102142.81;;;22.79;38.02
58698;BME280;44475;53.206;-6.106;2023-01-29T14:08:43;102126.81;;;22.88;37.54
58698;BME280;44475;53.206;-6.106;2023-01-29T14:13:46;102127.09;;;22.83;37.38
58698;BME280;44475;53.206;-6.106;2023-01-29T14:19:16;102121.84;;;22.80;37.45
58698;BME280;44475;53.206;-6.106;2023-01-29T14:21:48;102142.72;;;22.81;37.54
58698;BME280;44475;53.206;-6.106;2023-01-29T14:24:18;102129.16;;;22.79;37.47
58698;BME280;44475;53.206;-6.106;2023-01-29T14:26:48;102114.91;;;22.74;37.58
58698;BME280;44475;53.206;-6.106;2023-01-29T14:31:57;102098.50;;;22.89;37.33
58698;BME280;44475;53.206;-6.106;2023-01-29T14:37:01;102058.94;;;22.95;37.04
58698;BME280;44475;53.206;-6.106;2023-01-29T14:39:36;102027.16;;;22.94;37.34
58698;BME280;44475;53.206;-6.106;2023-01-29T14:42:23;102014.47;;;22.93;37.08
58698;BME280;44475;53.206;-6.106;2023-01-29T14:50:00;101979.94;;;22.77;37.41
58698;BME280;44475;53.206;-6.106;2023-01-29T14:52:39;101962.38;;;22.81;37.45
58698;BME280;44475;53.206;-6.106;2023-01-29T14:55:13;101968.47;;;22.72;37.50
58698;BME280;44475;53.206;-6.106;2023-01-29T14:57:41;101969.13;;;22.75;37.70
58698;BME280;44475;53.206;-6.106;2023-01-29T15:00:27;101995.91;;;22.70;37.91
58698;BME280;44475;53.206;-6.106;2023-01-29T15:02:55;102016.28;;;22.64;37.97
58698;BME280;44475;53.206;-6.106;2023-01-29T15:05:28;102011.41;;;22.69;38.25
58698;BME280;44475;53.206;-6.106;2023-01-29T15:08:34;102006.94;;;22.68;38.07
58698;BME280;44475;53.206;-6.106;2023-01-29T15:11:39;102007.06;;;22.80;38.15
58698;BME280;44475;53.206;-6.106;2023-01-29T15:14:16;102018.09;;;22.78;38.44
58698;BME280;44475;53.206;-6.106;2023-01-29T15:17:16;102019.75;;;22.81;38.21
58698;BME280;44475;53.206;-6.106;2023-01-29T15:19:47;102015.84;;;22.85;37.67
58698;BME280;44475;53.206;-6.106;2023-01-29T15:22:19;102023.84;;;22.88;37.60
58698;BME280;44475;53.206;-6.106;2023-01-29T15:25:00;102018.38;;;22.88;37.38
58698;BME280;44475;53.206;-6.106;2023-01-29T15:27:27;101984.88;;;22.72;37.89
58698;BME280;44475;53.206;-6.106;2023-01-29T15:30:00;101976.25;;;22.78;37.49
58698;BME280;44475;53.206;-6.106;2023-01-29T15:32:37;101979.94;;;22.77;37.53
58698;BME280;44475;53.206;-6.106;2023-01-29T15:38:20;101970.19;;;22.73;38.11
58698;BME280;44475;53.206;-6.106;2023-01-29T15:40:57;101990.19;;;22.60;38.21
58698;BME280;44475;53.206;-6.106;2023-01-29T15:43:35;102003.41;;;22.66;38.05
58698;BME280;44475;53.206;-6.106;2023-01-29T15:46:32;102020.53;;;22.83;37.85
58698;BME280;44475;53.206;-6.106;2023-01-29T15:49:06;102037.75;;;22.70;38.45
58698;BME280;44475;53.206;-6.106;2023-01-29T15:51:33;102024.19;;;22.69;38.32